createdAt,value
2017-04-16T00:00:13.081Z,9.11
2017-04-16T00:01:13.353Z,9.1
2017-04-16T00:02:13.340Z,9.03
2017-04-16T00:03:13.313Z,9.06
2017-04-16T00:04:13.291Z,9.05
2017-04-16T00:05:12.962Z,9.06
2017-04-16T00:06:13.255Z,9.06
2017-04-16T00:07:12.932Z,9.09
2017-04-16T00:08:12.903Z,9.11
2017-04-16T00:09:13.183Z,9.03
2017-04-16T00:10:12.852Z,9.03
2017-04-16T00:11:13.153Z,9.03
2017-04-16T00:12:13.127Z,9.06
2017-04-16T00:13:12.795Z,9.03
2017-04-16T00:14:13.079Z,9.06
2017-04-16T00:15:13.059Z,9.06
2017-04-16T00:16:12.833Z,9.13
2017-04-16T00:17:12.402Z,9.17
2017-04-16T00:18:12.775Z,9.22
2017-04-16T00:19:12.364Z,9.14
2017-04-16T00:20:12.949Z,9.14
2017-04-16T00:21:12.309Z,9.09
2017-04-16T00:22:12.597Z,9.02
2017-04-16T00:23:12.912Z,9.1
2017-04-16T00:24:12.273Z,9.24
2017-04-16T00:25:12.532Z,9.19
2017-04-16T00:26:12.504Z,9.28
2017-04-16T00:27:12.433Z,9.14
2017-04-16T00:28:12.764Z,9.19
2017-04-16T00:29:12.443Z,9.29
2017-04-16T00:30:12.432Z,9.25
2017-04-16T00:31:12.396Z,9.14
2017-04-16T00:32:12.384Z,9.21
2017-04-16T00:33:12.672Z,9.06
2017-04-16T00:34:12.347Z,9.06
2017-04-16T00:35:12.317Z,9.21
2017-04-16T00:36:12.424Z,9.22
2017-04-16T00:37:12.573Z,9.25
2017-04-16T00:38:12.553Z,9.24
2017-04-16T00:39:12.236Z,9.05
2017-04-16T00:40:12.239Z,9.1
2017-04-16T00:41:12.182Z,9.06
2017-04-16T00:42:12.465Z,9.1
2017-04-16T00:43:12.143Z,9.19
2017-04-16T00:44:12.435Z,9.14
2017-04-16T00:45:12.103Z,9.05
2017-04-16T00:46:12.382Z,9.09
2017-04-16T00:47:12.355Z,9.05
2017-04-16T00:48:12.335Z,9.03
2017-04-16T00:49:12.393Z,9.05
2017-04-16T00:50:12.387Z,8.95
2017-04-16T00:51:12.265Z,8.95
2017-04-16T00:52:12.251Z,8.98
2017-04-16T00:53:12.244Z,9
2017-04-16T00:54:12.204Z,9.06
2017-04-16T00:55:12.194Z,9.03
2017-04-16T00:56:12.249Z,9.11
2017-04-16T00:57:12.188Z,9.05
2017-04-16T00:58:12.184Z,9.11
2017-04-16T00:59:11.802Z,9.1
2017-04-16T01:00:12.074Z,9.06
2017-04-16T01:01:11.735Z,9.13
2017-04-16T01:02:11.723Z,9.06
2017-04-16T01:03:12.003Z,9.03
2017-04-16T01:04:11.688Z,9.06
2017-04-16T01:05:11.664Z,9.11
2017-04-16T01:06:11.954Z,9.16
2017-04-16T01:07:11.623Z,9.19
2017-04-16T01:08:11.903Z,9.05
2017-04-16T01:09:11.889Z,9.1
2017-04-16T01:10:11.554Z,9.06
2017-04-16T01:11:11.521Z,9.11
2017-04-16T01:12:11.506Z,9.05
2017-04-16T01:13:11.933Z,9.05
2017-04-16T01:14:11.765Z,9.03
2017-04-16T01:15:11.131Z,8.97
2017-04-16T01:16:11.723Z,8.95
2017-04-16T01:17:11.691Z,8.98
2017-04-16T01:18:11.375Z,8.88
2017-04-16T01:19:11.706Z,8.93
2017-04-16T01:20:11.747Z,8.9
2017-04-16T01:21:11.303Z,8.91
2017-04-16T01:22:11.593Z,8.88
2017-04-16T01:23:11.562Z,8.88
2017-04-16T01:24:11.245Z,8.79
2017-04-16T01:25:11.217Z,8.77
2017-04-16T01:26:11.191Z,8.88
2017-04-16T01:27:11.176Z,8.94
2017-04-16T01:28:11.145Z,8.84
2017-04-16T01:29:11.135Z,8.97
2017-04-16T01:30:11.414Z,8.98
2017-04-16T01:31:10.780Z,8.88
2017-04-16T01:32:11.363Z,8.77
2017-04-16T01:33:11.051Z,8.83
2017-04-16T01:34:11.324Z,8.8
2017-04-16T01:35:11.153Z,8.83
2017-04-16T01:36:11.293Z,8.72
2017-04-16T01:37:10.974Z,8.76
2017-04-16T01:38:11.259Z,8.67
2017-04-16T01:39:11.294Z,8.66
2017-04-16T01:40:11.337Z,8.76
2017-04-16T01:41:10.894Z,8.62
2017-04-16T01:42:11.156Z,8.62
2017-04-16T01:43:11.136Z,8.69
2017-04-16T01:44:11.113Z,8.65
2017-04-16T01:45:11.143Z,8.62
2017-04-16T01:46:11.063Z,8.69
2017-04-16T01:47:10.799Z,8.69
2017-04-16T01:48:11.024Z,8.62
2017-04-16T01:49:10.796Z,8.67
2017-04-16T01:50:10.668Z,8.66
2017-04-16T01:51:10.991Z,8.58
2017-04-16T01:52:10.944Z,8.57
2017-04-16T01:53:10.706Z,8.69
2017-04-16T01:54:10.593Z,8.69
2017-04-16T01:55:10.643Z,8.75
2017-04-16T01:56:10.887Z,8.75
2017-04-16T01:57:10.333Z,8.77
2017-04-16T01:58:10.583Z,8.67
2017-04-16T01:59:10.163Z,8.83
2017-04-16T02:00:10.863Z,8.75
2017-04-16T02:01:10.726Z,8.65
2017-04-16T02:02:10.393Z,8.69
2017-04-16T02:03:10.804Z,8.65
2017-04-16T02:04:10.440Z,8.62
2017-04-16T02:05:10.336Z,8.7
2017-04-16T02:06:10.402Z,8.54
2017-04-16T02:07:10.153Z,8.54
2017-04-16T02:08:10.281Z,8.52
2017-04-16T02:09:10.564Z,8.55
2017-04-16T02:10:10.567Z,8.34
2017-04-16T02:11:10.336Z,8.48
2017-04-16T02:12:10.615Z,8.45
2017-04-16T02:13:10.463Z,8.33
2017-04-16T02:14:09.856Z,8.51
2017-04-16T02:15:10.417Z,8.47
2017-04-16T02:16:10.394Z,8.45
2017-04-16T02:17:09.771Z,8.37
2017-04-16T02:18:10.349Z,8.34
2017-04-16T02:19:10.323Z,8.34
2017-04-16T02:20:10.300Z,8.42
2017-04-16T02:21:09.983Z,8.43
2017-04-16T02:22:09.982Z,8.48
2017-04-16T02:23:10.254Z,8.45
2017-04-16T02:24:09.939Z,8.34
2017-04-16T02:25:10.143Z,8.33
2017-04-16T02:26:09.971Z,8.34
2017-04-16T02:27:09.848Z,8.33
2017-04-16T02:28:09.922Z,8.37
2017-04-16T02:29:10.113Z,8.39
2017-04-16T02:30:10.082Z,8.33
2017-04-16T02:31:10.063Z,8.33
2017-04-16T02:32:10.033Z,8.34
2017-04-16T02:33:10.014Z,8.34
2017-04-16T02:34:09.769Z,8.29
2017-04-16T02:35:09.980Z,8.37
2017-04-16T02:36:09.945Z,8.37
2017-04-16T02:37:09.624Z,8.36
2017-04-16T02:38:09.916Z,8.22
2017-04-16T02:39:09.884Z,8.25
2017-04-16T02:40:09.864Z,8.37
2017-04-16T02:41:09.523Z,8.16
2017-04-16T02:42:09.513Z,8.16
2017-04-16T02:43:09.793Z,8.22
2017-04-16T02:44:09.779Z,8.3
2017-04-16T02:45:09.744Z,8.24
2017-04-16T02:46:09.718Z,8.14
2017-04-16T02:47:09.704Z,8.18
2017-04-16T02:48:09.385Z,7.99
2017-04-16T02:49:09.666Z,8.07
2017-04-16T02:50:09.035Z,8.15
2017-04-16T02:51:08.994Z,8.16
2017-04-16T02:52:09.493Z,8.22
2017-04-16T02:53:08.954Z,8.19
2017-04-16T02:54:09.546Z,8.14
2017-04-16T02:55:08.910Z,8.15
2017-04-16T02:56:09.517Z,8.16
2017-04-16T02:57:09.470Z,8.06
2017-04-16T02:58:09.463Z,8.18
2017-04-16T02:59:09.133Z,8.12
2017-04-16T03:00:09.510Z,8.21
2017-04-16T03:01:09.153Z,8.19
2017-04-16T03:02:09.394Z,8.11
2017-04-16T03:03:09.344Z,8.15
2017-04-16T03:04:09.330Z,8.14
2017-04-16T03:05:09.398Z,8.15
2017-04-16T03:06:08.963Z,8.12
2017-04-16T03:07:08.942Z,7.99
2017-04-16T03:08:08.614Z,8.07
2017-04-16T03:09:08.914Z,8.09
2017-04-16T03:10:09.184Z,8.09
2017-04-16T03:11:09.174Z,8.06
2017-04-16T03:12:08.832Z,8.11
2017-04-16T03:13:08.505Z,8.16
2017-04-16T03:14:09.094Z,8.18
2017-04-16T03:15:09.167Z,8.12
2017-04-16T03:16:09.042Z,8.11
2017-04-16T03:17:08.410Z,8.21
2017-04-16T03:18:08.994Z,8.16
2017-04-16T03:19:08.373Z,8.15
2017-04-16T03:20:08.645Z,8.21
2017-04-16T03:21:08.623Z,8.15
2017-04-16T03:22:08.602Z,8.11
2017-04-16T03:23:08.592Z,8.16
2017-04-16T03:24:08.564Z,8.15
2017-04-16T03:25:08.604Z,8.07
2017-04-16T03:26:08.823Z,8.12
2017-04-16T03:27:08.833Z,8.16
2017-04-16T03:28:08.478Z,8.15
2017-04-16T03:29:08.455Z,8.11
2017-04-16T03:30:08.492Z,8
2017-04-16T03:31:08.703Z,8.07
2017-04-16T03:32:08.733Z,8.14
2017-04-16T03:33:08.712Z,8.16
2017-04-16T03:34:08.343Z,8.07
2017-04-16T03:35:08.618Z,8.12
2017-04-16T03:36:08.595Z,8.15
2017-04-16T03:37:08.258Z,8.06
2017-04-16T03:38:07.932Z,8.07
2017-04-16T03:39:08.241Z,8.14
2017-04-16T03:40:08.210Z,8.14
2017-04-16T03:41:08.497Z,8.11
2017-04-16T03:42:08.151Z,8.12
2017-04-16T03:43:08.445Z,8.09
2017-04-16T03:44:08.564Z,8.03
2017-04-16T03:45:08.392Z,7.96
2017-04-16T03:46:08.067Z,7.93
2017-04-16T03:47:07.843Z,7.97
2017-04-16T03:48:08.381Z,8
2017-04-16T03:49:08.323Z,7.94
2017-04-16T03:50:08.273Z,7.88
2017-04-16T03:51:08.295Z,7.91
2017-04-16T03:52:07.928Z,7.93
2017-04-16T03:53:08.232Z,7.96
2017-04-16T03:54:07.882Z,8.01
2017-04-16T03:55:08.269Z,7.97
2017-04-16T03:56:07.530Z,8
2017-04-16T03:57:08.121Z,8.07
2017-04-16T03:58:08.116Z,8.07
2017-04-16T03:59:08.132Z,8.11
2017-04-16T04:00:07.843Z,8.11
2017-04-16T04:01:07.423Z,7.99
2017-04-16T04:02:08.015Z,8
2017-04-16T04:03:07.982Z,7.97
2017-04-16T04:04:07.969Z,8.01
2017-04-16T04:05:07.942Z,7.99
2017-04-16T04:06:07.931Z,7.99
2017-04-16T04:07:07.603Z,7.99
2017-04-16T04:08:07.577Z,8.09
2017-04-16T04:09:07.563Z,7.94
2017-04-16T04:10:07.822Z,7.99
2017-04-16T04:11:07.482Z,8.06
2017-04-16T04:12:07.924Z,7.94
2017-04-16T04:13:07.453Z,7.97
2017-04-16T04:14:07.423Z,8.07
2017-04-16T04:15:07.445Z,7.99
2017-04-16T04:16:07.687Z,7.96
2017-04-16T04:17:07.674Z,8.07
2017-04-16T04:18:07.650Z,8.06
2017-04-16T04:19:07.624Z,7.99
2017-04-16T04:20:07.322Z,7.99
2017-04-16T04:21:07.581Z,8.06
2017-04-16T04:22:07.247Z,8.09
2017-04-16T04:23:07.534Z,8.04
2017-04-16T04:24:07.527Z,8.18
2017-04-16T04:25:06.861Z,8.07
2017-04-16T04:26:07.495Z,7.99
2017-04-16T04:27:07.445Z,8
2017-04-16T04:28:07.512Z,8.03
2017-04-16T04:29:07.105Z,8
2017-04-16T04:30:07.482Z,7.94
2017-04-16T04:31:07.354Z,7.94
2017-04-16T04:32:07.333Z,7.99
2017-04-16T04:33:07.002Z,8.03
2017-04-16T04:34:07.003Z,8.07
2017-04-16T04:35:07.279Z,7.99
2017-04-16T04:36:07.275Z,8.06
2017-04-16T04:37:06.903Z,8.06
2017-04-16T04:38:06.920Z,8.07
2017-04-16T04:39:06.865Z,8.09
2017-04-16T04:40:06.830Z,7.96
2017-04-16T04:41:06.822Z,8.09
2017-04-16T04:42:07.102Z,8.14
2017-04-16T04:43:07.088Z,8
2017-04-16T04:44:07.052Z,8
2017-04-16T04:45:07.080Z,7.91
2017-04-16T04:46:07.013Z,7.96
2017-04-16T04:47:06.983Z,7.91
2017-04-16T04:48:06.962Z,7.88
2017-04-16T04:49:06.939Z,7.91
2017-04-16T04:50:06.922Z,7.91
2017-04-16T04:51:06.893Z,7.94
2017-04-16T04:52:06.913Z,7.96
2017-04-16T04:53:06.853Z,7.88
2017-04-16T04:54:06.682Z,8
2017-04-16T04:55:06.555Z,8.03
2017-04-16T04:56:06.171Z,7.97
2017-04-16T04:57:06.762Z,8.11
2017-04-16T04:58:06.189Z,8.03
2017-04-16T04:59:06.478Z,8.09
2017-04-16T05:00:06.402Z,8.11
2017-04-16T05:01:06.059Z,8.14
2017-04-16T05:02:06.044Z,8.11
2017-04-16T05:03:06.625Z,7.97
2017-04-16T05:04:06.296Z,8.01
2017-04-16T05:05:06.591Z,7.97
2017-04-16T05:06:06.264Z,7.99
2017-04-16T05:07:06.522Z,7.99
2017-04-16T05:08:06.308Z,8.06
2017-04-16T05:09:06.189Z,7.99
2017-04-16T05:10:06.476Z,8.07
2017-04-16T05:11:06.485Z,8.11
2017-04-16T05:12:06.443Z,8.12
2017-04-16T05:13:06.108Z,8.09
2017-04-16T05:14:06.073Z,7.94
2017-04-16T05:15:06.363Z,8
2017-04-16T05:16:05.762Z,7.97
2017-04-16T05:17:06.014Z,7.96
2017-04-16T05:18:06.304Z,7.97
2017-04-16T05:19:06.265Z,7.9
2017-04-16T05:20:06.240Z,7.94
2017-04-16T05:21:05.901Z,7.93
2017-04-16T05:22:05.582Z,8.04
2017-04-16T05:23:05.873Z,8.07
2017-04-16T05:24:06.161Z,8.09
2017-04-16T05:25:05.825Z,8.19
2017-04-16T05:26:06.112Z,8.12
2017-04-16T05:27:05.771Z,8.32
2017-04-16T05:28:05.752Z,8.27
2017-04-16T05:29:06.053Z,8.16
2017-04-16T05:30:06.009Z,8.25
2017-04-16T05:31:05.692Z,8.18
2017-04-16T05:32:05.681Z,8.16
2017-04-16T05:33:05.641Z,8.18
2017-04-16T05:34:05.632Z,8.27
2017-04-16T05:35:05.384Z,8.32
2017-04-16T05:36:05.901Z,8.3
2017-04-16T05:37:05.864Z,8.39
2017-04-16T05:38:05.544Z,8.42
2017-04-16T05:39:05.842Z,8.34
2017-04-16T05:40:05.175Z,8.22
2017-04-16T05:41:05.784Z,8.4
2017-04-16T05:42:05.134Z,8.32
2017-04-16T05:43:05.731Z,8.3
2017-04-16T05:44:05.703Z,8.3
2017-04-16T05:45:05.382Z,8.4
2017-04-16T05:46:05.814Z,8.52
2017-04-16T05:47:05.023Z,8.47
2017-04-16T05:48:05.003Z,8.25
2017-04-16T05:49:05.283Z,8.36
2017-04-16T05:50:05.282Z,8.34
2017-04-16T05:51:05.560Z,8.34
2017-04-16T05:52:05.544Z,8.37
2017-04-16T05:53:05.196Z,8.45
2017-04-16T05:54:05.384Z,8.54
2017-04-16T05:55:05.321Z,8.58
2017-04-16T05:56:05.133Z,8.65
2017-04-16T05:57:05.423Z,8.72
2017-04-16T05:58:05.404Z,8.79
2017-04-16T05:59:05.422Z,8.52
2017-04-16T06:00:05.048Z,8.69
2017-04-16T06:01:05.336Z,8.7
2017-04-16T06:02:05.002Z,8.72
2017-04-16T06:03:05.422Z,8.8
2017-04-16T06:04:05.262Z,8.9
2017-04-16T06:05:05.114Z,8.91
2017-04-16T06:06:05.241Z,8.93
2017-04-16T06:07:05.251Z,9
2017-04-16T06:08:04.880Z,8.98
2017-04-16T06:09:05.204Z,8.98
2017-04-16T06:10:05.242Z,9.05
2017-04-16T06:11:05.162Z,9.11
2017-04-16T06:12:05.093Z,9.1
2017-04-16T06:13:05.119Z,9.17
2017-04-16T06:14:05.130Z,9.14
2017-04-16T06:15:05.023Z,9.09
2017-04-16T06:16:05.102Z,9.11
2017-04-16T06:17:04.985Z,9.14
2017-04-16T06:18:04.984Z,8.95
2017-04-16T06:19:05.013Z,8.98
2017-04-16T06:20:04.612Z,9.06
2017-04-16T06:21:04.943Z,9.17
2017-04-16T06:22:04.898Z,9.17
2017-04-16T06:23:04.922Z,9.29
2017-04-16T06:24:04.522Z,9.29
2017-04-16T06:25:04.883Z,9.29
2017-04-16T06:26:04.809Z,9.34
2017-04-16T06:27:04.682Z,9.54
2017-04-16T06:28:04.492Z,9.43
2017-04-16T06:29:04.516Z,9.54
2017-04-16T06:30:04.443Z,9.6
2017-04-16T06:31:04.381Z,9.62
2017-04-16T06:32:04.435Z,9.74
2017-04-16T06:33:04.393Z,9.8
2017-04-16T06:34:04.652Z,9.92
2017-04-16T06:35:04.645Z,9.83
2017-04-16T06:36:04.870Z,9.75
2017-04-16T06:37:04.660Z,9.78
2017-04-16T06:38:04.593Z,9.7
2017-04-16T06:39:03.906Z,9.72
2017-04-16T06:40:04.573Z,9.97
2017-04-16T06:41:04.178Z,10.08
2017-04-16T06:42:04.153Z,10.19
2017-04-16T06:43:04.142Z,10.1
2017-04-16T06:44:03.792Z,10.13
2017-04-16T06:45:04.081Z,10.15
2017-04-16T06:46:04.071Z,10.33
2017-04-16T06:47:04.050Z,10.36
2017-04-16T06:48:04.032Z,10.44
2017-04-16T06:49:04.002Z,10.48
2017-04-16T06:50:04.360Z,10.56
2017-04-16T06:51:03.973Z,10.63
2017-04-16T06:52:03.706Z,10.87
2017-04-16T06:53:03.922Z,11.11
2017-04-16T06:54:04.303Z,11.48
2017-04-16T06:55:03.579Z,11.79
2017-04-16T06:56:03.572Z,12.02
2017-04-16T06:57:03.863Z,12.37
2017-04-16T06:58:04.192Z,13.14
2017-04-16T06:59:03.832Z,13.81
2017-04-16T07:00:03.912Z,13.92
2017-04-16T07:01:03.789Z,14.02
2017-04-16T07:02:03.783Z,14.11
2017-04-16T07:03:04.109Z,14.28
2017-04-16T07:04:03.758Z,14.25
2017-04-16T07:05:04.133Z,14.54
2017-04-16T07:06:04.022Z,14.4
2017-04-16T07:07:03.383Z,14.35
2017-04-16T07:08:03.998Z,14.29
2017-04-16T07:09:03.999Z,14.36
2017-04-16T07:10:03.964Z,14.17
2017-04-16T07:11:03.631Z,14.11
2017-04-16T07:12:03.932Z,14.48
2017-04-16T07:13:03.602Z,14.73
2017-04-16T07:14:03.589Z,14.89
2017-04-16T07:15:03.570Z,15.16
2017-04-16T07:16:03.560Z,15.44
2017-04-16T07:17:03.914Z,15.54
2017-04-16T07:18:03.532Z,15.75
2017-04-16T07:19:03.863Z,15.67
2017-04-16T07:20:03.505Z,15.04
2017-04-16T07:21:03.803Z,14.91
2017-04-16T07:22:03.482Z,15.14
2017-04-16T07:23:03.157Z,15.5
2017-04-16T07:24:03.757Z,15.97
2017-04-16T07:25:03.753Z,15.83
2017-04-16T07:26:03.430Z,15.44
2017-04-16T07:27:03.401Z,15.57
2017-04-16T07:28:03.391Z,15.77
2017-04-16T07:29:03.391Z,15.92
2017-04-16T07:30:03.682Z,16.02
2017-04-16T07:31:03.667Z,15.13
2017-04-16T07:32:03.643Z,14.6
2017-04-16T07:33:03.325Z,14.35
2017-04-16T07:34:03.346Z,14.47
2017-04-16T07:35:03.614Z,14.69
2017-04-16T07:36:03.594Z,15.09
2017-04-16T07:37:03.584Z,15.62
2017-04-16T07:38:03.264Z,15.8
2017-04-16T07:39:03.261Z,15.53
2017-04-16T07:40:03.550Z,15.29
2017-04-16T07:41:03.238Z,14.75
2017-04-16T07:42:03.531Z,14.68
2017-04-16T07:43:03.200Z,14.28
2017-04-16T07:44:03.491Z,14.21
2017-04-16T07:45:03.184Z,14.22
2017-04-16T07:46:02.859Z,13.89
2017-04-16T07:47:03.150Z,13.7
2017-04-16T07:48:03.142Z,13.57
2017-04-16T07:49:03.462Z,13.44
2017-04-16T07:50:02.832Z,13.21
2017-04-16T07:51:03.393Z,13.01
2017-04-16T07:52:03.071Z,13.11
2017-04-16T07:53:03.065Z,12.86
2017-04-16T07:54:03.357Z,12.81
2017-04-16T07:55:03.344Z,12.58
2017-04-16T07:56:03.321Z,12.35
2017-04-16T07:57:03.299Z,12.48
2017-04-16T07:58:02.985Z,12.4
2017-04-16T07:59:03.491Z,12.58
2017-04-16T08:00:03.059Z,12.53
2017-04-16T08:01:02.981Z,12.74
2017-04-16T08:02:03.222Z,12.82
2017-04-16T08:03:02.901Z,12.73
2017-04-16T08:04:03.193Z,13
2017-04-16T08:05:03.168Z,13.1
2017-04-16T08:06:02.912Z,13.22
2017-04-16T08:07:03.152Z,13.21
2017-04-16T08:08:02.831Z,13.25
2017-04-16T08:09:02.822Z,13.56
2017-04-16T08:10:02.812Z,13.8
2017-04-16T08:11:02.777Z,13.93
2017-04-16T08:12:02.770Z,14.15
2017-04-16T08:13:02.774Z,14.32
2017-04-16T08:14:03.038Z,14.55
2017-04-16T08:15:03.132Z,14.8
2017-04-16T08:16:03.036Z,15.09
2017-04-16T08:17:02.763Z,15.14
2017-04-16T08:18:03.115Z,15.57
2017-04-16T08:19:02.710Z,15.77
2017-04-16T08:20:02.974Z,15.86
2017-04-16T08:21:02.645Z,15.86
2017-04-16T08:22:02.626Z,15.89
2017-04-16T08:23:02.912Z,15.54
2017-04-16T08:24:02.911Z,15.54
2017-04-16T08:25:02.594Z,15.37
2017-04-16T08:26:02.976Z,15.16
2017-04-16T08:27:02.891Z,15.16
2017-04-16T08:28:02.963Z,15.21
2017-04-16T08:29:02.862Z,15.5
2017-04-16T08:30:02.632Z,15.54
2017-04-16T08:31:02.882Z,15.76
2017-04-16T08:32:02.862Z,15.6
2017-04-16T08:33:02.850Z,15.52
2017-04-16T08:34:02.786Z,15.25
2017-04-16T08:35:02.770Z,15.09
2017-04-16T08:36:02.755Z,15.09
2017-04-16T08:37:02.819Z,15.14
2017-04-16T08:38:02.803Z,15.2
2017-04-16T08:39:02.437Z,15.12
2017-04-16T08:40:02.804Z,15.02
2017-04-16T08:41:02.809Z,15.02
2017-04-16T08:42:02.683Z,14.69
2017-04-16T08:43:02.355Z,14.84
2017-04-16T08:44:02.677Z,14.69
2017-04-16T08:45:02.645Z,14.98
2017-04-16T08:46:02.641Z,15.27
2017-04-16T08:47:02.644Z,15.21
2017-04-16T08:48:02.605Z,15.43
2017-04-16T08:49:02.604Z,15.92
2017-04-16T08:50:02.575Z,16.45
2017-04-16T08:51:02.594Z,16.83
2017-04-16T08:52:02.555Z,16.85
2017-04-16T08:53:02.635Z,17.31
2017-04-16T08:54:02.594Z,17.34
2017-04-16T08:55:02.596Z,17.67
2017-04-16T08:56:02.335Z,17.78
2017-04-16T08:57:02.540Z,17.77
2017-04-16T08:58:02.506Z,17.68
2017-04-16T08:59:02.483Z,17.18
2017-04-16T09:00:02.188Z,17.21
2017-04-16T09:01:02.154Z,17.3
2017-04-16T09:02:02.488Z,17.42
2017-04-16T09:03:01.845Z,17.62
2017-04-16T09:04:02.442Z,17.95
2017-04-16T09:05:02.132Z,17.96
2017-04-16T09:06:02.411Z,18.04
2017-04-16T09:07:02.403Z,17.87
2017-04-16T09:08:02.394Z,17.8
2017-04-16T09:09:02.412Z,17.52
2017-04-16T09:10:02.075Z,17.31
2017-04-16T09:11:02.381Z,17.06
2017-04-16T09:12:02.354Z,17.03
2017-04-16T09:13:02.382Z,16.96
2017-04-16T09:14:02.331Z,16.9
2017-04-16T09:15:02.013Z,16.98
2017-04-16T09:16:02.341Z,16.56
2017-04-16T09:17:02.004Z,16.38
2017-04-16T09:18:02.292Z,16.79
2017-04-16T09:19:02.293Z,17.14
2017-04-16T09:20:02.274Z,17.51
2017-04-16T09:21:02.274Z,17.93
2017-04-16T09:22:02.466Z,18.1
2017-04-16T09:23:02.254Z,17.78
2017-04-16T09:24:02.245Z,17.46
2017-04-16T09:25:02.382Z,17.48
2017-04-16T09:26:02.225Z,16.9
2017-04-16T09:27:02.241Z,16.78
2017-04-16T09:28:01.873Z,16.6
2017-04-16T09:29:02.186Z,16.68
2017-04-16T09:30:01.867Z,16.9
2017-04-16T09:31:02.170Z,17.22
2017-04-16T09:32:02.146Z,17.09
2017-04-16T09:33:02.143Z,17.15
2017-04-16T09:34:01.826Z,17.3
2017-04-16T09:35:02.132Z,17.67
2017-04-16T09:36:02.114Z,17.95
2017-04-16T09:37:01.796Z,18.14
2017-04-16T09:38:02.107Z,18.29
2017-04-16T09:39:02.103Z,18.14
2017-04-16T09:40:02.067Z,17.85
2017-04-16T09:41:02.053Z,17.93
2017-04-16T09:42:01.758Z,18.14
2017-04-16T09:43:01.732Z,18.47
2017-04-16T09:44:01.723Z,18.62
2017-04-16T09:45:02.072Z,18.88
2017-04-16T09:46:01.707Z,18.95
2017-04-16T09:47:01.692Z,19.11
2017-04-16T09:48:01.711Z,18.97
2017-04-16T09:49:01.681Z,18.52
2017-04-16T09:50:01.974Z,18.26
2017-04-16T09:51:01.982Z,18.3
2017-04-16T09:52:01.656Z,18.27
2017-04-16T09:53:01.656Z,18.33
2017-04-16T09:54:01.640Z,18.37
2017-04-16T09:55:01.641Z,18.18
2017-04-16T09:56:01.610Z,17.7
2017-04-16T09:57:02.073Z,17.46
2017-04-16T09:58:01.607Z,17.46
2017-04-16T09:59:01.593Z,17.62
2017-04-16T10:00:01.891Z,17.65
2017-04-16T10:01:01.903Z,17.64
2017-04-16T10:02:01.563Z,17.52
2017-04-16T10:03:01.843Z,17.4
2017-04-16T10:04:01.535Z,17.34
2017-04-16T10:05:01.822Z,17.54
2017-04-16T10:06:01.823Z,17.7
2017-04-16T10:07:01.502Z,17.87
2017-04-16T10:08:01.797Z,17.78
2017-04-16T10:09:01.470Z,18.12
2017-04-16T10:10:01.464Z,18.07
2017-04-16T10:11:01.757Z,18.04
2017-04-16T10:12:01.748Z,18.12
2017-04-16T10:13:01.416Z,18.02
2017-04-16T10:14:01.494Z,17.9
2017-04-16T10:15:01.710Z,17.45
2017-04-16T10:16:01.694Z,17
2017-04-16T10:17:01.681Z,16.9
2017-04-16T10:18:01.701Z,16.78
2017-04-16T10:19:01.694Z,16.58
2017-04-16T10:20:01.664Z,16.75
2017-04-16T10:21:01.319Z,16.9
2017-04-16T10:22:01.683Z,17.12
2017-04-16T10:23:01.612Z,17.45
2017-04-16T10:24:01.711Z,17.6
2017-04-16T10:25:01.277Z,17.62
2017-04-16T10:26:01.574Z,17.34
2017-04-16T10:27:01.586Z,16.69
2017-04-16T10:28:01.335Z,16.63
2017-04-16T10:29:01.524Z,16.64
2017-04-16T10:30:01.569Z,16.69
2017-04-16T10:31:01.513Z,17.01
2017-04-16T10:32:00.971Z,17.15
2017-04-16T10:33:01.474Z,17.48
2017-04-16T10:34:00.856Z,17.4
2017-04-16T10:35:01.137Z,17.62
2017-04-16T10:36:01.222Z,17.77
2017-04-16T10:37:01.481Z,18.07
2017-04-16T10:38:01.123Z,17.74
2017-04-16T10:39:01.075Z,17.85
2017-04-16T10:40:01.536Z,18.12
2017-04-16T10:41:01.453Z,18.5
2017-04-16T10:42:01.043Z,18.62
2017-04-16T10:43:01.032Z,18.69
2017-04-16T10:44:01.374Z,18.45
2017-04-16T10:45:01.365Z,18.55
2017-04-16T10:46:01.304Z,18.4
2017-04-16T10:47:01.343Z,18.07
2017-04-16T10:48:00.964Z,17.89
2017-04-16T10:49:01.285Z,17.85
2017-04-16T10:50:00.683Z,17.46
2017-04-16T10:51:00.619Z,17.09
2017-04-16T10:52:00.604Z,16.96
2017-04-16T10:53:01.300Z,17.05
2017-04-16T10:54:00.882Z,17.12
2017-04-16T10:55:01.203Z,17.11
2017-04-16T10:56:01.176Z,17.39
2017-04-16T10:57:00.531Z,17.67
2017-04-16T10:58:01.142Z,17.98
2017-04-16T10:59:00.817Z,18.02
2017-04-16T11:00:00.851Z,18.29
2017-04-16T11:01:01.093Z,18.26
2017-04-16T11:02:00.762Z,18.4
2017-04-16T11:03:01.083Z,18.67
2017-04-16T11:04:01.091Z,18.63
2017-04-16T11:05:01.042Z,18.32
2017-04-16T11:06:01.023Z,18.12
2017-04-16T11:07:00.506Z,17.82
2017-04-16T11:08:01.015Z,17.82
2017-04-16T11:09:00.676Z,17.86
2017-04-16T11:10:01.014Z,18
2017-04-16T11:11:00.963Z,18.29
2017-04-16T11:12:00.646Z,18.41
2017-04-16T11:13:00.953Z,18.63
2017-04-16T11:14:00.614Z,18.52
2017-04-16T11:15:00.693Z,18.42
2017-04-16T11:16:00.603Z,18.6
2017-04-16T11:17:00.869Z,18.96
2017-04-16T11:18:00.860Z,19.15
2017-04-16T11:19:00.842Z,19.18
2017-04-16T11:20:00.218Z,18.9
2017-04-16T11:21:00.217Z,18.82
2017-04-16T11:22:00.495Z,18.81
2017-04-16T11:23:00.824Z,18.85
2017-04-16T11:24:00.783Z,18.81
2017-04-16T11:25:00.469Z,18.32
2017-04-16T11:26:00.786Z,17.9
2017-04-16T11:27:00.742Z,17.62
2017-04-16T11:28:00.143Z,17.36
2017-04-16T11:29:00.422Z,16.94
2017-04-16T11:30:00.707Z,16.79
2017-04-16T11:31:00.378Z,16.75
2017-04-16T11:32:00.472Z,16.75
2017-04-16T11:33:00.662Z,16.42
2017-04-16T11:34:00.345Z,16.27
2017-04-16T11:35:00.343Z,16.15
2017-04-16T11:36:00.614Z,16.34
2017-04-16T11:37:00.592Z,16.32
2017-04-16T11:38:00.602Z,16.32
2017-04-16T11:39:00.581Z,16.36
2017-04-16T11:40:00.265Z,16.28
2017-04-16T11:41:00.537Z,16.35
2017-04-16T11:42:00.272Z,16.43
2017-04-16T11:43:00.513Z,16.48
2017-04-16T11:44:00.492Z,16.51
2017-04-16T11:45:00.210Z,16.42
2017-04-16T11:46:00.157Z,16.32
2017-04-16T11:47:00.463Z,16.28
2017-04-16T11:48:00.453Z,16.41
2017-04-16T11:49:00.426Z,16.78
2017-04-16T11:50:00.662Z,17.09
2017-04-16T11:51:00.400Z,17.08
2017-04-16T11:52:00.379Z,17.06
2017-04-16T11:52:59.753Z,17.15
2017-04-16T11:54:00.038Z,17.46
2017-04-16T11:55:00.323Z,17.71
2017-04-16T11:56:00.320Z,18.04
2017-04-16T11:57:00.315Z,18.1
2017-04-16T11:58:00.282Z,18.32
2017-04-16T11:59:00.419Z,18.3
2017-04-16T12:00:00.263Z,17.93
2017-04-16T12:00:59.944Z,18
2017-04-16T12:02:00.243Z,17.89
2017-04-16T12:03:00.310Z,18.04
2017-04-16T12:03:59.906Z,17.96
2017-04-16T12:05:00.263Z,18.11
2017-04-16T12:06:00.194Z,18.6
2017-04-16T12:07:00.363Z,18.88
2017-04-16T12:08:00.154Z,19.22
2017-04-16T12:09:00.166Z,19.38
2017-04-16T12:10:00.141Z,19.44
2017-04-16T12:10:59.802Z,19.28
2017-04-16T12:11:59.795Z,18.87
2017-04-16T12:13:00.087Z,18.44
2017-04-16T12:14:00.085Z,17.96
2017-04-16T12:15:00.055Z,17.89
2017-04-16T12:16:00.055Z,17.74
2017-04-16T12:17:00.055Z,17.3
2017-04-16T12:18:00.024Z,17.09
2017-04-16T12:19:00.003Z,17.27
2017-04-16T12:19:59.682Z,17.22
2017-04-16T12:20:59.971Z,17.39
2017-04-16T12:21:59.954Z,17.29
2017-04-16T12:22:59.702Z,17.4
2017-04-16T12:23:59.944Z,17.19
2017-04-16T12:25:00.058Z,16.96
2017-04-16T12:25:59.611Z,16.87
2017-04-16T12:26:59.882Z,16.64
2017-04-16T12:27:59.882Z,16.66
2017-04-16T12:28:59.577Z,16.71
2017-04-16T12:29:59.862Z,16.64
2017-04-16T12:30:59.832Z,16.46
2017-04-16T12:31:59.832Z,16.26
2017-04-16T12:32:59.811Z,15.95
2017-04-16T12:33:59.781Z,16
2017-04-16T12:34:59.782Z,16.05
2017-04-16T12:35:59.763Z,16.05
2017-04-16T12:36:59.732Z,15.95
2017-04-16T12:37:59.722Z,16.05
2017-04-16T12:38:59.704Z,15.94
2017-04-16T12:39:59.690Z,15.69
2017-04-16T12:40:59.360Z,15.72
2017-04-16T12:41:59.351Z,15.5
2017-04-16T12:42:59.333Z,15.47
2017-04-16T12:43:59.322Z,15.46
2017-04-16T12:44:59.610Z,15.54
2017-04-16T12:45:59.281Z,15.62
2017-04-16T12:46:59.582Z,15.46
2017-04-16T12:47:59.281Z,15.14
2017-04-16T12:48:59.239Z,15.21
2017-04-16T12:49:59.232Z,15.27
2017-04-16T12:50:59.515Z,15.34
2017-04-16T12:51:59.498Z,15.21
2017-04-16T12:52:59.497Z,15.1
2017-04-16T12:53:59.481Z,15.22
2017-04-16T12:54:59.142Z,15.24
2017-04-16T12:55:59.441Z,15.46
2017-04-16T12:56:59.422Z,15.29
2017-04-16T12:57:59.102Z,15.46
2017-04-16T12:58:59.460Z,15.53
2017-04-16T12:59:59.105Z,15.57
2017-04-16T13:00:59.044Z,15.52
2017-04-16T13:01:59.341Z,15.44
2017-04-16T13:02:59.311Z,15.52
2017-04-16T13:03:59.312Z,15.58
2017-04-16T13:04:59.289Z,15.61
2017-04-16T13:05:58.952Z,15.65
2017-04-16T13:06:59.252Z,15.6
2017-04-16T13:07:58.920Z,15.67
2017-04-16T13:08:59.023Z,15.75